Time;durP1;ratioP1;P1;durP2;ratioP2;P2;SDS_P1;SDS_P2;PMS_P1;PMS_P2;Temp;Humidity;BMP_temperature;BMP_pressure;BME280_temperature;BME280_humidity;BME280_pressure;Samples;Min_cycle;Max_cycle;Signal;HPM_P1;HPM_P2
2023/11/22 00:02:17;;;;;;;11.93;6.57;;;7.30;99.90;;;;;;5038219;28;20680;-91
2023/11/22 00:04:44;;;;;;;11.00;6.25;;;7.20;99.90;;;;;;5038112;28;20049;-91
2023/11/22 00:07:10;;;;;;;11.68;5.68;;;7.20;99.90;;;;;;5038739;28;20057;-90
2023/11/22 00:09:36;;;;;;;13.60;7.80;;;7.20;99.90;;;;;;5038686;28;20025;-90
2023/11/22 00:12:02;;;;;;;12.73;6.78;;;7.10;99.90;;;;;;5039541;28;20021;-91
2023/11/22 00:14:28;;;;;;;12.10;6.55;;;7.10;99.90;;;;;;5040879;28;20071;-91
2023/11/22 00:16:53;;;;;;;8.00;5.82;;;7.10;99.90;;;;;;5040912;28;20104;-90
2023/11/22 00:19:22;;;;;;;11.10;5.75;;;7.00;99.90;;;;;;5040867;28;20033;-91
2023/11/22 00:21:48;;;;;;;8.52;5.68;;;7.00;99.90;;;;;;5038123;28;20033;-90
2023/11/22 00:24:13;;;;;;;9.85;5.90;;;6.90;99.90;;;;;;5038404;28;20104;-91
2023/11/22 00:26:39;;;;;;;15.95;7.13;;;6.90;99.90;;;;;;5039874;28;20058;-90
2023/11/22 00:29:05;;;;;;;9.77;5.25;;;6.90;99.90;;;;;;5020918;28;20105;-89
2023/11/22 00:31:31;;;;;;;12.95;6.70;;;6.80;99.90;;;;;;5039412;28;20021;-90
2023/11/22 00:33:56;;;;;;;12.27;7.43;;;6.80;99.90;;;;;;5038999;28;20025;-90
2023/11/22 00:36:22;;;;;;;10.20;7.35;;;6.70;99.90;;;;;;5038929;28;20053;-91
2023/11/22 00:38:48;;;;;;;12.57;6.40;;;6.70;99.90;;;;;;5039890;28;20079;-90
2023/11/22 00:41:16;;;;;;;10.02;7.05;;;6.60;99.90;;;;;;5021016;28;20017;-91
2023/11/22 00:43:42;;;;;;;11.90;7.22;;;6.60;99.90;;;;;;5037464;28;20111;-90
2023/11/22 00:46:08;;;;;;;10.30;6.13;;;6.50;99.90;;;;;;5039720;28;20627;-90
2023/11/22 00:48:33;;;;;;;10.10;6.70;;;6.50;99.90;;;;;;5038798;28;20396;-92
2023/11/22 00:50:59;;;;;;;11.15;5.85;;;6.40;99.90;;;;;;5041960;28;20075;-90
2023/11/22 00:53:25;;;;;;;11.48;6.82;;;6.40;99.90;;;;;;5038330;28;20022;-91
2023/11/22 00:55:50;;;;;;;10.88;6.15;;;6.30;99.90;;;;;;5036445;28;20028;-90
2023/11/22 00:58:17;;;;;;;10.27;5.93;;;6.30;99.90;;;;;;5035778;28;20492;-91
2023/11/22 01:00:42;;;;;;;9.75;6.55;;;6.30;99.90;;;;;;5034714;28;20014;-90
2023/11/22 01:03:11;;;;;;;9.55;5.72;;;6.20;99.90;;;;;;5018491;28;20578;-90
2023/11/22 01:05:37;;;;;;;9.82;5.82;;;6.10;99.90;;;;;;5036348;28;20038;-90
2023/11/22 01:08:03;;;;;;;8.15;5.25;;;6.10;99.90;;;;;;5037001;28;20026;-91
2023/11/22 01:10:29;;;;;;;8.88;5.65;;;6.00;99.90;;;;;;5037310;28;20032;-90
2023/11/22 01:12:55;;;;;;;9.80;5.75;;;6.00;99.90;;;;;;5038177;28;20028;-90
2023/11/22 01:15:21;;;;;;;7.60;5.07;;;5.90;99.90;;;;;;5021325;28;20022;-89
2023/11/22 01:17:47;;;;;;;8.55;5.03;;;5.70;99.90;;;;;;5038226;28;20017;-91
2023/11/22 01:20:13;;;;;;;10.30;5.50;;;5.70;99.90;;;;;;5037470;28;20030;-91
2023/11/22 01:22:39;;;;;;;8.65;5.32;;;5.60;99.90;;;;;;5016559;28;20037;-90
2023/11/22 01:25:05;;;;;;;8.10;4.93;;;5.60;99.90;;;;;;5037963;28;20030;-89
2023/11/22 01:27:31;;;;;;;9.70;6.53;;;5.50;99.90;;;;;;5020555;28;20084;-89
2023/11/22 01:29:57;;;;;;;8.38;4.65;;;5.50;99.90;;;;;;5018875;28;20060;-89
2023/11/22 01:32:22;;;;;;;7.22;5.22;;;5.40;99.90;;;;;;5037093;28;20018;-89
2023/11/22 01:34:48;;;;;;;8.50;5.03;;;5.40;99.90;;;;;;5036578;28;20559;-91
2023/11/22 01:37:14;;;;;;;7.95;5.80;;;5.40;99.90;;;;;;5037103;28;20026;-90
2023/11/22 01:39:41;;;;;;;8.63;4.15;;;5.30;99.90;;;;;;5032675;28;20044;-90
2023/11/22 01:42:07;;;;;;;8.30;4.55;;;5.40;99.90;;;;;;5035749;28;20017;-90
2023/11/22 01:44:33;;;;;;;9.30;5.43;;;5.40;99.90;;;;;;5036061;28;20029;-88
2023/11/22 01:46:59;;;;;;;8.80;5.40;;;5.30;99.90;;;;;;5038126;28;20179;-90
2023/11/22 01:49:24;;;;;;;8.35;4.75;;;5.30;99.90;;;;;;5035762;28;20479;-90
2023/11/22 01:51:50;;;;;;;11.23;6.47;;;5.30;99.90;;;;;;5017927;28;20018;-90
2023/11/22 01:54:18;;;;;;;10.30;5.70;;;5.30;99.90;;;;;;5035859;28;20025;-89
2023/11/22 01:56:45;;;;;;;8.40;5.07;;;5.30;99.90;;;;;;5035073;28;20599;-90
2023/11/22 01:59:12;;;;;;;7.97;5.55;;;5.30;99.90;;;;;;5034956;28;20022;-89
2023/11/22 02:01:38;;;;;;;7.43;4.85;;;5.20;99.90;;;;;;5017075;28;20104;-89
2023/11/22 02:04:04;;;;;;;6.82;4.88;;;5.20;99.90;;;;;;5035934;28;20071;-89
2023/11/22 02:06:31;;;;;;;7.88;4.97;;;5.20;99.90;;;;;;5037013;28;20085;-90
2023/11/22 02:08:57;;;;;;;9.77;4.72;;;5.10;99.90;;;;;;5019155;28;20037;-89
2023/11/22 02:11:24;;;;;;;7.55;4.85;;;5.20;99.90;;;;;;5037150;28;20024;-90
2023/11/22 02:13:50;;;;;;;7.13;4.47;;;5.20;99.90;;;;;;5036320;28;20128;-88
2023/11/22 02:16:16;;;;;;;6.40;4.18;;;5.20;99.90;;;;;;5036245;28;20041;-89
2023/11/22 02:18:45;;;;;;;7.35;5.65;;;5.10;99.90;;;;;;5036049;28;20025;-89
2023/11/22 02:21:10;;;;;;;8.38;4.75;;;5.20;99.90;;;;;;5035783;28;20033;-90
2023/11/22 02:23:37;;;;;;;7.40;5.20;;;5.20;99.90;;;;;;5018202;28;20120;-91
2023/11/22 02:26:02;;;;;;;6.53;4.15;;;5.20;99.90;;;;;;5038914;28;20022;-89
2023/11/22 02:28:28;;;;;;;7.10;4.60;;;5.10;99.90;;;;;;5037288;28;20052;-90
2023/11/22 02:30:54;;;;;;;5.35;4.22;;;5.20;99.90;;;;;;5037066;28;20032;-90
2023/11/22 02:33:20;;;;;;;7.50;4.35;;;5.10;99.90;;;;;;5036647;28;20446;-90
2023/11/22 02:35:46;;;;;;;4.68;3.53;;;5.10;99.90;;;;;;5036178;28;20029;-90
2023/11/22 02:38:11;;;;;;;5.13;3.75;;;5.10;99.90;;;;;;5036573;28;20087;-90
2023/11/22 02:40:37;;;;;;;5.90;3.80;;;5.20;99.90;;;;;;5035372;28;20091;-89
2023/11/22 02:43:08;;;;;;;4.90;4.43;;;5.20;99.90;;;;;;5036678;28;20100;-90
2023/11/22 02:45:34;;;;;;;4.03;3.08;;;5.10;99.90;;;;;;5035745;28;20086;-90
2023/11/22 02:48:03;;;;;;;5.78;4.28;;;5.10;99.90;;;;;;5011670;28;20073;-90
2023/11/22 02:50:29;;;;;;;5.18;3.85;;;5.10;99.90;;;;;;5033145;28;20036;-90
2023/11/22 02:52:55;;;;;;;5.30;3.40;;;5.10;99.90;;;;;;5035351;28;20028;-89
2023/11/22 02:55:20;;;;;;;4.15;3.63;;;5.10;99.90;;;;;;5034821;28;20078;-89
2023/11/22 02:57:46;;;;;;;4.18;3.15;;;5.10;99.90;;;;;;5035808;28;20075;-90
2023/11/22 03:00:15;;;;;;;5.68;3.75;;;5.00;99.90;;;;;;5035093;28;20080;-90
2023/11/22 03:02:41;;;;;;;6.20;4.07;;;5.10;99.90;;;;;;5037154;28;20033;-90
2023/11/22 03:05:10;;;;;;;4.70;3.58;;;5.10;99.90;;;;;;5035505;28;20030;-91
2023/11/22 03:07:37;;;;;;;4.18;3.28;;;5.20;99.90;;;;;;5036486;28;20040;-91
2023/11/22 03:10:03;;;;;;;6.55;4.10;;;5.10;99.90;;;;;;5036163;28;20034;-90
2023/11/22 03:12:29;;;;;;;5.60;3.45;;;5.10;99.90;;;;;;5037059;28;20018;-90
2023/11/22 03:14:58;;;;;;;3.95;3.53;;;5.10;99.90;;;;;;5036914;28;20044;-90
2023/11/22 03:17:24;;;;;;;5.28;3.67;;;5.20;99.90;;;;;;5037436;28;20071;-91
2023/11/22 03:19:51;;;;;;;3.78;3.45;;;5.20;99.90;;;;;;5036218;28;20029;-89
2023/11/22 03:22:17;;;;;;;4.93;3.78;;;5.20;99.90;;;;;;5036902;28;20040;-91
2023/11/22 03:24:43;;;;;;;4.47;3.35;;;5.20;99.90;;;;;;5036371;28;20104;-91
2023/11/22 03:27:10;;;;;;;4.85;3.53;;;5.20;99.90;;;;;;5035769;28;20091;-89
2023/11/22 03:29:37;;;;;;;4.78;3.72;;;5.20;99.90;;;;;;5035314;28;20028;-91
2023/11/22 03:32:03;;;;;;;5.22;4.30;;;5.10;99.90;;;;;;5033909;28;20032;-89
2023/11/22 03:34:29;;;;;;;6.75;4.18;;;5.20;99.90;;;;;;5034932;28;20022;-91
2023/11/22 03:36:55;;;;;;;5.15;3.53;;;5.20;99.90;;;;;;5036969;28;20032;-90
2023/11/22 03:39:22;;;;;;;5.43;4.13;;;5.10;99.90;;;;;;5035714;28;20021;-90
2023/11/22 03:41:48;;;;;;;5.72;4.35;;;5.10;99.90;;;;;;5035779;28;20091;-90
2023/11/22 03:44:14;;;;;;;7.13;4.47;;;5.00;99.90;;;;;;5036260;28;20029;-90
2023/11/22 03:46:40;;;;;;;8.25;4.78;;;5.00;99.90;;;;;;5038655;28;20038;-90
2023/11/22 03:49:08;;;;;;;8.48;5.47;;;4.90;99.90;;;;;;5037838;28;20455;-89
2023/11/22 03:51:35;;;;;;;6.60;5.90;;;4.90;99.90;;;;;;5038130;28;20060;-89
2023/11/22 03:54:04;;;;;;;8.98;6.20;;;4.90;99.90;;;;;;5019821;28;20034;-91
2023/11/22 03:56:30;;;;;;;9.40;5.18;;;4.90;99.90;;;;;;5038368;28;20599;-90
2023/11/22 03:58:56;;;;;;;6.30;5.22;;;4.80;99.90;;;;;;5041370;28;20022;-90
2023/11/22 04:01:22;;;;;;;8.40;4.70;;;4.80;99.90;;;;;;5041740;28;20025;-91
2023/11/22 04:03:48;;;;;;;7.07;4.07;;;4.70;99.90;;;;;;5041616;28;20396;-90
2023/11/22 04:06:19;;;;;;;6.40;4.88;;;4.70;99.90;;;;;;5040126;28;20029;-90
2023/11/22 04:08:45;;;;;;;15.00;7.10;;;4.70;99.90;;;;;;5039376;28;20068;-90
2023/11/22 04:11:12;;;;;;;6.50;4.72;;;4.70;99.90;;;;;;5038556;28;20105;-90
2023/11/22 04:13:38;;;;;;;6.85;5.63;;;4.50;99.90;;;;;;5022088;28;20033;-89
2023/11/22 04:16:08;;;;;;;6.32;5.13;;;4.50;99.90;;;;;;5022368;28;20112;-90
2023/11/22 04:18:35;;;;;;;7.18;4.57;;;4.40;99.90;;;;;;5040283;28;20032;-90
2023/11/22 04:21:02;;;;;;;6.80;4.53;;;4.30;99.90;;;;;;5038368;28;20045;-91
2023/11/22 04:23:28;;;;;;;6.55;5.32;;;4.30;99.90;;;;;;5040090;28;20022;-89
2023/11/22 04:25:54;;;;;;;9.63;5.35;;;4.20;99.90;;;;;;5039480;28;20030;-89
2023/11/22 04:28:20;;;;;;;8.27;4.03;;;4.20;99.90;;;;;;5039459;28;20029;-90
2023/11/22 04:30:46;;;;;;;6.63;5.32;;;4.10;99.90;;;;;;5039212;28;20097;-90
2023/11/22 04:33:12;;;;;;;7.50;4.43;;;4.10;99.90;;;;;;5040198;28;20022;-90
2023/11/22 04:35:38;;;;;;;8.85;4.32;;;4.10;99.90;;;;;;5039182;28;20028;-90
2023/11/22 04:38:04;;;;;;;6.60;4.70;;;4.00;99.90;;;;;;5038378;28;20618;-89
2023/11/22 04:40:30;;;;;;;7.55;4.35;;;4.00;99.90;;;;;;5020615;28;20068;-91
2023/11/22 04:42:56;;;;;;;7.75;4.57;;;4.00;99.90;;;;;;5039895;28;20025;-91
2023/11/22 04:45:22;;;;;;;5.60;3.95;;;3.90;99.90;;;;;;5040966;28;20060;-91
2023/11/22 04:47:48;;;;;;;6.32;3.83;;;4.00;99.90;;;;;;5041108;28;20025;-92
2023/11/22 04:50:13;;;;;;;6.55;4.40;;;3.90;99.90;;;;;;5039035;28;20446;-91
2023/11/22 04:52:39;;;;;;;8.30;5.25;;;3.80;99.90;;;;;;5040980;28;20077;-92
2023/11/22 04:55:05;;;;;;;6.30;4.20;;;3.80;99.90;;;;;;5039695;28;20037;-91
2023/11/22 04:57:31;;;;;;;6.05;3.97;;;3.80;99.90;;;;;;5038597;28;20021;-91
2023/11/22 04:59:57;;;;;;;9.10;4.93;;;3.70;99.90;;;;;;5026217;28;20222;-92
2023/11/22 05:02:22;;;;;;;7.38;5.13;;;3.70;99.90;;;;;;5034804;28;20033;-93
2023/11/22 05:04:49;;;;;;;10.77;4.97;;;3.70;99.90;;;;;;5046404;28;20033;-93
2023/11/22 05:07:15;;;;;;;6.30;4.75;;;3.60;99.90;;;;;;5044201;28;20033;-92
2023/11/22 05:09:43;;;;;;;7.72;4.72;;;3.50;99.90;;;;;;5043104;28;20479;-93
2023/11/22 05:12:10;;;;;;;9.30;5.72;;;3.50;99.90;;;;;;5046152;28;20026;-93
2023/11/22 05:14:36;;;;;;;12.68;11.45;;;3.50;99.90;;;;;;5045222;28;20026;-93
2023/11/22 05:17:02;;;;;;;12.98;8.80;;;3.50;99.90;;;;;;5046755;28;20052;-91
2023/11/22 05:19:28;;;;;;;10.18;7.43;;;3.40;99.90;;;;;;5041432;28;20029;-92
2023/11/22 05:21:53;;;;;;;10.13;7.75;;;3.40;99.90;;;;;;5039589;28;20456;-91
2023/11/22 05:24:19;;;;;;;10.63;7.38;;;3.40;99.90;;;;;;5034542;28;20033;-91
2023/11/22 05:26:45;;;;;;;9.82;6.75;;;3.40;99.90;;;;;;5037578;28;20029;-92
2023/11/22 05:29:14;;;;;;;10.25;5.47;;;3.40;99.90;;;;;;5040901;28;20025;-94
2023/11/22 05:31:39;;;;;;;10.63;6.35;;;3.30;99.90;;;;;;5037863;28;20021;-93
2023/11/22 05:34:08;;;;;;;11.90;6.60;;;3.30;99.90;;;;;;5041438;28;20125;-93
2023/11/22 05:36:50;;;;;;;9.73;6.72;;;3.20;99.90;;;;;;5041818;28;20040;-92
2023/11/22 05:39:19;;;;;;;7.38;5.60;;;3.20;99.90;;;;;;5024872;28;20045;-93
2023/11/22 05:41:45;;;;;;;8.18;6.18;;;3.20;99.90;;;;;;5024203;28;20030;-93
2023/11/22 05:44:11;;;;;;;10.77;8.38;;;3.10;99.90;;;;;;5040209;28;20028;-91
2023/11/22 05:46:38;;;;;;;10.10;7.32;;;3.20;99.90;;;;;;5040507;28;20033;-92
2023/11/22 05:49:04;;;;;;;17.65;11.82;;;3.10;99.90;;;;;;5038414;28;20021;-93
2023/11/22 05:51:29;;;;;;;16.15;10.25;;;3.10;99.90;;;;;;5040788;28;20056;-94
2023/11/22 05:53:55;;;;;;;9.60;5.15;;;3.10;99.90;;;;;;5040291;28;20021;-92
2023/11/22 05:56:21;;;;;;;7.95;5.53;;;3.10;99.90;;;;;;5039564;28;20097;-92
2023/11/22 05:58:48;;;;;;;7.68;5.22;;;3.00;99.90;;;;;;5022566;28;20083;-93
2023/11/22 06:01:14;;;;;;;8.07;6.32;;;3.10;99.90;;;;;;5022862;28;20059;-92
2023/11/22 06:03:40;;;;;;;8.82;6.90;;;3.00;99.90;;;;;;5039581;28;20018;-92
2023/11/22 06:06:06;;;;;;;9.20;4.93;;;3.00;99.90;;;;;;5039232;28;20139;-92
2023/11/22 06:08:32;;;;;;;8.50;5.03;;;3.00;99.90;;;;;;5038869;28;20036;-92
2023/11/22 06:10:59;;;;;;;9.73;6.07;;;2.90;99.90;;;;;;5038552;28;20034;-92
2023/11/22 06:13:26;;;;;;;12.70;7.82;;;2.90;99.90;;;;;;5039064;28;20086;-92
2023/11/22 06:15:51;;;;;;;10.60;6.43;;;2.90;99.90;;;;;;5038941;28;20017;-92
2023/11/22 06:18:18;;;;;;;7.57;5.07;;;2.90;99.90;;;;;;5038548;28;20106;-93
2023/11/22 06:20:45;;;;;;;7.60;5.55;;;2.90;99.90;;;;;;5036861;28;20029;-92
2023/11/22 06:23:11;;;;;;;12.45;8.10;;;2.90;99.90;;;;;;5038830;28;20051;-92
2023/11/22 06:25:36;;;;;;;10.07;6.10;;;2.80;99.90;;;;;;5038473;28;20032;-92
2023/11/22 06:28:02;;;;;;;9.00;5.55;;;2.80;99.90;;;;;;5038663;28;20080;-91
2023/11/22 06:30:30;;;;;;;6.57;4.28;;;2.80;99.90;;;;;;5038532;28;20033;-92
2023/11/22 06:32:56;;;;;;;9.85;4.90;;;2.80;99.90;;;;;;5038753;28;20318;-91
2023/11/22 06:35:22;;;;;;;12.55;7.65;;;2.80;99.90;;;;;;5038576;28;20029;-94
2023/11/22 06:37:48;;;;;;;10.27;6.68;;;2.70;99.90;;;;;;5037997;28;20017;-92
2023/11/22 06:40:16;;;;;;;5.80;5.15;;;2.70;99.90;;;;;;5020021;28;20086;-93
2023/11/22 06:42:42;;;;;;;8.18;4.85;;;2.70;99.50;;;;;;5020191;28;20071;-94
2023/11/22 06:45:12;;;;;;;7.03;4.85;;;2.70;99.30;;;;;;5036414;28;20030;-94
2023/11/22 06:47:39;;;;;;;9.30;5.20;;;2.70;98.60;;;;;;5038110;28;20021;-93
2023/11/22 06:50:09;;;;;;;8.75;5.35;;;2.70;98.90;;;;;;5038366;28;20512;-93
2023/11/22 06:52:36;;;;;;;8.43;5.70;;;2.70;98.50;;;;;;5038472;28;20492;-93
2023/11/22 06:55:02;;;;;;;7.38;5.45;;;2.60;97.60;;;;;;5038264;28;20017;-93
2023/11/22 06:57:28;;;;;;;7.30;4.45;;;2.60;97.90;;;;;;5038662;28;20026;-92
2023/11/22 06:59:58;;;;;;;9.88;6.07;;;2.60;97.10;;;;;;5038334;28;20029;-94
2023/11/22 07:02:24;;;;;;;8.15;4.03;;;2.50;96.00;;;;;;5037672;28;20029;-95
2023/11/22 07:04:50;;;;;;;5.88;4.82;;;2.50;96.00;;;;;;5038492;28;20049;-92
2023/11/22 07:07:16;;;;;;;8.48;5.53;;;2.50;95.50;;;;;;5021878;28;20108;-92
2023/11/22 07:09:46;;;;;;;7.55;5.80;;;2.50;94.60;;;;;;5039167;28;20033;-93
2023/11/22 07:12:11;;;;;;;7.55;5.55;;;2.50;95.70;;;;;;5039910;28;20021;-92
2023/11/22 07:14:38;;;;;;;5.60;4.07;;;2.40;95.30;;;;;;5041756;28;20022;-91
2023/11/22 07:17:06;;;;;;;9.13;5.90;;;2.40;92.90;;;;;;5033259;28;20849;-92
2023/11/22 07:19:37;;;;;;;9.30;5.50;;;2.40;94.40;;;;;;5018064;28;20399;-92
2023/11/22 07:22:04;;;;;;;7.78;6.97;;;2.40;92.90;;;;;;5024556;28;20037;-92
2023/11/22 07:24:34;;;;;;;7.60;4.97;;;2.40;92.20;;;;;;5024842;28;20416;-93
2023/11/22 07:27:00;;;;;;;7.20;4.55;;;2.30;93.40;;;;;;5042175;28;20085;-93
2023/11/22 07:29:29;;;;;;;6.30;4.07;;;2.30;92.70;;;;;;5039662;28;20494;-93
2023/11/22 07:31:56;;;;;;;6.80;4.65;;;2.40;93.30;;;;;;5040034;28;20028;-93
2023/11/22 07:34:23;;;;;;;6.32;4.60;;;2.40;94.00;;;;;;5022442;28;20103;-91
2023/11/22 07:36:50;;;;;;;6.63;4.38;;;2.30;92.90;;;;;;5040882;28;20021;-91
2023/11/22 07:39:20;;;;;;;7.88;5.47;;;2.40;93.80;;;;;;5031616;28;20086;-92
2023/11/22 07:41:48;;;;;;;7.90;4.93;;;2.40;92.00;;;;;;5041640;28;20072;-91
2023/11/22 07:44:18;;;;;;;5.97;4.22;;;2.40;94.50;;;;;;5025762;28;20123;-92
2023/11/22 07:46:44;;;;;;;7.40;4.75;;;2.40;92.40;;;;;;5043650;28;20089;-91
2023/11/22 07:49:10;;;;;;;10.02;6.47;;;2.40;92.20;;;;;;5042484;28;20044;-92
2023/11/22 07:51:37;;;;;;;6.18;4.22;;;2.50;93.70;;;;;;5041169;28;20025;-92
2023/11/22 07:54:03;;;;;;;5.35;4.15;;;2.50;92.30;;;;;;5041664;28;20049;-92
2023/11/22 07:56:29;;;;;;;5.63;4.00;;;2.50;91.40;;;;;;5040602;28;20033;-92
2023/11/22 07:58:54;;;;;;;6.43;4.50;;;2.50;91.30;;;;;;5041133;28;20079;-92
2023/11/22 08:01:25;;;;;;;5.10;3.83;;;2.50;92.00;;;;;;5042149;28;20033;-92
2023/11/22 08:03:51;;;;;;;5.32;4.38;;;2.50;91.70;;;;;;5043068;28;20032;-93
2023/11/22 08:06:17;;;;;;;4.90;3.67;;;2.50;90.80;;;;;;5023807;28;20095;-92
2023/11/22 08:08:45;;;;;;;4.78;3.08;;;2.50;90.70;;;;;;5042063;28;20053;-93
2023/11/22 08:11:14;;;;;;;4.57;3.35;;;2.50;90.10;;;;;;5041005;28;20751;-92
2023/11/22 08:13:47;;;;;;;5.47;4.15;;;2.60;90.40;;;;;;5034945;28;20029;-92
2023/11/22 08:16:13;;;;;;;8.85;5.68;;;2.50;90.40;;;;;;5018896;28;20036;-92
2023/11/22 08:18:42;;;;;;;7.93;4.65;;;2.60;89.40;;;;;;5022101;28;20026;-91
2023/11/22 08:21:08;;;;;;;10.40;6.68;;;2.60;89.10;;;;;;5039168;28;20044;-91
2023/11/22 08:23:34;;;;;;;6.57;3.60;;;2.60;90.00;;;;;;5040718;28;20105;-92
2023/11/22 08:26:00;;;;;;;6.43;4.57;;;2.60;88.30;;;;;;5040166;28;20049;-92
2023/11/22 08:28:26;;;;;;;11.77;4.88;;;2.70;88.20;;;;;;5017698;28;20033;-92
2023/11/22 08:30:53;;;;;;;5.72;4.20;;;2.70;86.30;;;;;;5040810;28;20086;-92
2023/11/22 08:33:22;;;;;;;8.18;5.47;;;2.70;84.70;;;;;;5039956;28;20013;-91
2023/11/22 08:35:52;;;;;;;7.88;4.80;;;2.60;84.40;;;;;;5039274;28;20030;-91
2023/11/22 08:38:19;;;;;;;5.47;3.40;;;2.70;86.10;;;;;;5041344;28;20018;-92
2023/11/22 08:40:44;;;;;;;8.48;5.50;;;2.70;83.70;;;;;;5024757;28;20538;-96
2023/11/22 08:43:12;;;;;;;6.50;4.60;;;2.70;81.80;;;;;;5020863;28;20029;-91
2023/11/22 08:45:38;;;;;;;6.50;4.97;;;2.70;80.90;;;;;;5035276;28;20052;-93
2023/11/22 08:48:04;;;;;;;8.65;6.05;;;2.80;81.70;;;;;;5045045;28;20029;-90
2023/11/22 08:50:30;;;;;;;10.10;8.98;;;2.70;82.40;;;;;;5043906;28;20496;-91
2023/11/22 08:52:57;;;;;;;11.18;7.40;;;2.80;81.40;;;;;;5043291;28;20029;-92
2023/11/22 08:55:24;;;;;;;7.85;4.75;;;2.80;82.70;;;;;;5042032;28;20029;-91
2023/11/22 08:57:51;;;;;;;8.10;5.15;;;2.90;81.40;;;;;;5024327;28;20032;-92
2023/11/22 09:00:22;;;;;;;8.55;4.28;;;2.80;80.20;;;;;;5041747;28;20025;-93
2023/11/22 09:02:48;;;;;;;8.52;5.18;;;2.80;80.30;;;;;;5042148;28;20053;-92
2023/11/22 09:05:16;;;;;;;7.93;7.22;;;2.80;79.60;;;;;;5042049;28;20025;-92
2023/11/22 09:07:44;;;;;;;9.05;5.80;;;2.90;81.40;;;;;;5027570;28;20052;-93
2023/11/22 09:10:12;;;;;;;8.95;4.68;;;2.90;80.20;;;;;;5038375;28;20025;-92
2023/11/22 09:12:40;;;;;;;5.88;4.50;;;2.90;79.70;;;;;;5039645;28;20041;-92
2023/11/22 09:15:10;;;;;;;7.90;5.47;;;2.80;79.00;;;;;;5042531;28;20091;-92
2023/11/22 09:17:48;;;;;;;7.28;5.00;;;2.90;80.20;;;;;;5042525;28;20022;-92
2023/11/22 09:20:17;;;;;;;7.60;4.95;;;2.80;80.50;;;;;;5041651;28;20021;-92
2023/11/22 09:22:47;;;;;;;10.88;6.72;;;2.90;81.80;;;;;;5023512;28;20026;-93
2023/11/22 09:25:16;;;;;;;9.13;5.03;;;2.90;81.50;;;;;;5023264;28;20037;-91
2023/11/22 09:27:47;;;;;;;8.43;4.75;;;3.00;82.20;;;;;;5020773;28;20164;-92
2023/11/22 09:30:19;;;;;;;10.13;6.72;;;3.00;82.40;;;;;;5038039;28;20400;-92
2023/11/22 09:32:46;;;;;;;5.88;5.22;;;3.20;82.60;;;;;;5032630;28;20040;-92
2023/11/22 09:35:15;;;;;;;7.85;4.45;;;3.30;82.90;;;;;;5022294;28;20020;-92
2023/11/22 09:37:44;;;;;;;5.43;4.05;;;3.40;83.10;;;;;;5041729;28;20060;-93
2023/11/22 09:40:12;;;;;;;6.20;4.93;;;3.70;84.70;;;;;;5025523;28;20033;-92
2023/11/22 09:42:38;;;;;;;7.78;7.00;;;3.90;82.50;;;;;;5041438;28;20030;-93
2023/11/22 09:45:04;;;;;;;4.15;3.47;;;4.00;81.50;;;;;;5040770;28;20026;-93
2023/11/22 09:47:34;;;;;;;4.78;3.88;;;4.20;81.00;;;;;;5041299;28;20557;-92
2023/11/22 09:50:05;;;;;;;6.25;3.38;;;4.30;78.30;;;;;;5038513;28;20143;-94
2023/11/22 09:52:33;;;;;;;5.82;4.00;;;4.30;80.20;;;;;;5022119;28;20017;-91
2023/11/22 09:55:01;;;;;;;6.50;4.32;;;4.20;80.60;;;;;;5038292;28;20021;-92
2023/11/22 09:57:29;;;;;;;;;;;4.20;80.40;;;;;;5039119;28;20032;-92
2023/11/22 09:59:57;;;;;;;9.02;5.43;;;4.10;81.10;;;;;;5040311;28;19905;-92
2023/11/22 10:02:26;;;;;;;5.03;3.40;;;4.10;81.40;;;;;;5039136;28;20040;-92
2023/11/22 10:04:54;;;;;;;5.05;4.20;;;4.30;80.50;;;;;;5020462;28;20026;-93
2023/11/22 10:07:20;;;;;;;6.35;4.25;;;4.30;79.80;;;;;;5035107;28;20053;-94
2023/11/22 10:09:45;;;;;;;7.80;4.72;;;4.40;79.20;;;;;;5039455;28;20045;-93
2023/11/22 10:12:20;;;;;;;5.32;4.30;;;4.40;79.70;;;;;;5039772;28;20018;-91
2023/11/22 10:14:47;;;;;;;7.95;4.03;;;4.30;80.00;;;;;;5038592;28;20022;-92
2023/11/22 10:17:16;;;;;;;5.13;4.03;;;4.30;81.10;;;;;;5038808;28;20028;-92
2023/11/22 10:19:42;;;;;;;5.63;4.03;;;4.20;81.60;;;;;;5038237;28;20065;-92
2023/11/22 10:22:08;;;;;;;4.35;3.92;;;4.00;81.20;;;;;;5036974;28;20037;-91
2023/11/22 10:24:35;;;;;;;6.93;4.45;;;4.00;81.60;;;;;;5029271;28;20044;-92
2023/11/22 10:27:02;;;;;;;6.22;3.58;;;4.00;81.50;;;;;;5040947;28;20036;-92
2023/11/22 10:29:28;;;;;;;6.22;4.15;;;4.00;79.60;;;;;;5037724;28;20044;-93
2023/11/22 10:31:54;;;;;;;6.97;4.57;;;3.90;82.90;;;;;;5037578;28;20045;-92
2023/11/22 10:34:23;;;;;;;5.95;4.40;;;3.90;81.60;;;;;;5037801;28;20030;-92
2023/11/22 10:36:49;;;;;;;6.22;4.63;;;4.00;83.10;;;;;;5037960;28;20029;-93
2023/11/22 10:39:26;;;;;;;8.63;4.38;;;3.90;80.20;;;;;;5038163;28;20055;-91
2023/11/22 10:41:51;;;;;;;6.95;4.80;;;3.90;81.10;;;;;;5038428;28;20022;-92
2023/11/22 10:44:20;;;;;;;5.22;3.83;;;3.90;79.70;;;;;;5036840;28;20397;-92
2023/11/22 10:46:47;;;;;;;6.63;4.78;;;4.00;81.30;;;;;;5035335;28;20022;-92
2023/11/22 10:49:13;;;;;;;5.32;4.35;;;4.00;79.30;;;;;;5016824;28;20029;-92
2023/11/22 10:51:44;;;;;;;5.47;4.40;;;4.10;79.80;;;;;;5037532;28;20028;-92
2023/11/22 10:54:11;;;;;;;5.95;3.88;;;4.00;79.80;;;;;;5022364;28;20371;-93
2023/11/22 10:56:42;;;;;;;6.78;4.88;;;3.90;78.30;;;;;;5044228;28;20056;-92
2023/11/22 10:59:14;;;;;;;6.00;4.22;;;3.90;80.00;;;;;;5043254;28;20013;-92
2023/11/22 11:01:45;;;;;;;6.32;5.22;;;4.00;79.30;;;;;;5032291;28;20492;-91
2023/11/22 11:04:27;;;;;;;6.07;3.83;;;4.00;80.90;;;;;;5038759;28;20101;-92
2023/11/22 11:06:57;;;;;;;7.32;4.90;;;4.10;79.10;;;;;;5031721;28;20082;-93
2023/11/22 11:09:32;;;;;;;6.88;4.85;;;4.20;80.70;;;;;;5040944;28;20076;-93
2023/11/22 11:11:58;;;;;;;5.82;4.40;;;4.10;77.80;;;;;;5042557;28;20049;-92
2023/11/22 11:14:25;;;;;;;7.25;4.57;;;4.10;78.30;;;;;;5040512;28;20104;-94
2023/11/22 11:16:54;;;;;;;5.50;4.68;;;4.10;77.90;;;;;;5041147;28;20044;-92
2023/11/22 11:19:25;;;;;;;5.13;4.45;;;4.10;78.80;;;;;;5041120;28;20022;-92
2023/11/22 11:21:51;;;;;;;4.90;4.18;;;4.10;78.50;;;;;;5039940;28;20431;-92
2023/11/22 11:24:18;;;;;;;6.68;4.22;;;4.40;77.60;;;;;;5041613;28;20109;-91
2023/11/22 11:26:53;;;;;;;4.22;3.58;;;4.40;75.60;;;;;;5041110;28;20018;-92
2023/11/22 11:29:42;;;;;;;6.53;3.72;;;4.50;76.50;;;;;;5040112;28;20483;-92
2023/11/22 11:32:34;;;;;;;6.00;5.10;;;4.60;77.60;;;;;;5042008;28;20044;-93
2023/11/22 11:35:03;;;;;;;5.72;3.60;;;4.70;74.40;;;;;;5041465;28;20013;-91
2023/11/22 11:37:32;;;;;;;5.55;3.90;;;4.60;75.40;;;;;;5042854;28;20096;-93
2023/11/22 11:39:58;;;;;;;4.28;3.88;;;4.60;75.90;;;;;;5041822;28;20032;-92
2023/11/22 11:42:24;;;;;;;6.35;4.43;;;4.60;76.80;;;;;;5040945;28;20407;-94
2023/11/22 11:44:59;;;;;;;6.35;3.63;;;4.70;77.10;;;;;;5041746;28;20026;-92
2023/11/22 11:47:25;;;;;;;5.70;3.47;;;4.80;75.50;;;;;;5035723;28;20639;-93
2023/11/22 11:49:50;;;;;;;5.70;3.90;;;5.00;76.00;;;;;;5024999;28;20071;-94
2023/11/22 11:52:16;;;;;;;6.15;4.03;;;5.00;74.20;;;;;;5042102;28;20718;-92
2023/11/22 11:54:42;;;;;;;5.63;4.20;;;4.80;72.80;;;;;;5023445;28;20116;-92
2023/11/22 11:57:08;;;;;;;5.63;4.13;;;4.80;73.90;;;;;;5023585;28;20028;-91
2023/11/22 11:59:35;;;;;;;8.80;6.25;;;4.70;75.20;;;;;;5036658;28;20039;-92
2023/11/22 12:02:01;;;;;;;9.80;5.68;;;4.80;74.20;;;;;;5046092;28;20083;-93
2023/11/22 12:04:27;;;;;;;9.75;4.80;;;4.60;73.60;;;;;;5042733;28;20045;-92
2023/11/22 12:06:53;;;;;;;9.73;5.53;;;4.40;74.30;;;;;;5024275;28;20030;-93
2023/11/22 12:09:26;;;;;;;7.53;4.68;;;4.50;76.20;;;;;;5035727;28;20385;-92
2023/11/22 12:11:55;;;;;;;8.25;4.40;;;4.50;75.70;;;;;;5039390;28;20089;-93
2023/11/22 12:14:24;;;;;;;8.25;4.22;;;4.30;75.20;;;;;;5036335;28;20600;-93
2023/11/22 12:16:54;;;;;;;6.20;4.38;;;4.30;75.90;;;;;;5035599;28;20021;-93
2023/11/22 12:19:24;;;;;;;7.38;4.05;;;4.40;76.70;;;;;;5041250;28;20642;-94
2023/11/22 12:21:50;;;;;;;4.82;4.05;;;4.50;76.40;;;;;;5023378;28;20061;-93
2023/11/22 12:24:16;;;;;;;7.43;5.35;;;4.50;75.60;;;;;;5043824;28;20117;-94
2023/11/22 12:26:46;;;;;;;8.07;5.07;;;4.40;74.50;;;;;;5036928;28;20053;-93
2023/11/22 12:29:17;;;;;;;29.13;25.73;;;4.40;73.90;;;;;;5037634;28;20095;-94
2023/11/22 12:31:55;;;;;;;8.18;7.13;;;4.30;73.40;;;;;;5022223;28;20021;-94
2023/11/22 12:34:25;;;;;;;9.55;7.35;;;4.40;74.90;;;;;;5020380;28;20025;-91
2023/11/22 12:36:50;;;;;;;9.73;6.35;;;4.50;75.30;;;;;;5042028;28;20099;-94
2023/11/22 12:39:20;;;;;;;11.63;7.47;;;4.60;73.60;;;;;;5045111;28;20029;-94
2023/11/22 12:41:56;;;;;;;9.13;5.18;;;4.60;73.90;;;;;;5046627;28;20049;-93
2023/11/22 12:44:22;;;;;;;7.82;4.53;;;4.50;72.90;;;;;;5054265;28;20025;-93
2023/11/22 12:46:49;;;;;;;8.18;5.10;;;4.30;74.00;;;;;;5052502;28;20014;-91
2023/11/22 12:49:18;;;;;;;17.00;6.25;;;4.40;74.20;;;;;;5053288;28;20017;-95
2023/11/22 12:51:52;;;;;;;7.15;5.78;;;4.50;74.10;;;;;;5030193;28;20029;-94
2023/11/22 12:54:21;;;;;;;6.22;4.97;;;4.50;74.40;;;;;;5038597;28;20109;-94
2023/11/22 12:56:59;;;;;;;8.75;5.30;;;4.50;73.80;;;;;;5046235;28;20021;-92